createdAt,value
2016-02-19T00:00:51.690Z,0
2016-02-19T00:01:51.677Z,0
2016-02-19T00:02:51.649Z,0
2016-02-19T00:03:51.604Z,0
2016-02-19T00:04:51.576Z,0
2016-02-19T00:05:51.532Z,0
2016-02-19T00:06:51.502Z,0
2016-02-19T00:07:51.475Z,0
2016-02-19T00:08:51.462Z,0
2016-02-19T00:09:51.418Z,0
2016-02-19T00:10:51.388Z,0
2016-02-19T00:11:51.376Z,0
2016-02-19T00:12:51.332Z,0
2016-02-19T00:13:51.303Z,0
2016-02-19T00:14:51.259Z,0
2016-02-19T00:15:51.230Z,0
2016-02-19T00:16:51.201Z,0
2016-02-19T00:17:51.173Z,0
2016-02-19T00:18:51.145Z,0
2016-02-19T00:19:51.100Z,0
2016-02-19T00:20:51.072Z,0
2016-02-19T00:21:51.043Z,0
2016-02-19T00:22:51.014Z,0
2016-02-19T00:23:51.002Z,0
2016-02-19T00:24:50.958Z,0
2016-02-19T00:25:50.928Z,0
2016-02-19T00:26:50.901Z,0
2016-02-19T00:27:50.872Z,0
2016-02-19T00:28:50.858Z,0
2016-02-19T00:29:50.799Z,0
2016-02-19T00:30:50.790Z,0
2016-02-19T00:31:50.746Z,0
2016-02-19T00:32:50.718Z,0
2016-02-19T00:33:50.689Z,0
2016-02-19T00:34:50.675Z,0
2016-02-19T00:35:50.632Z,0
2016-02-19T00:36:50.587Z,0
2016-02-19T00:37:50.558Z,0
2016-02-19T00:38:50.531Z,0
2016-02-19T00:39:50.502Z,0
2016-02-19T00:40:50.473Z,0
2016-02-19T00:41:50.445Z,0
2016-02-19T00:42:50.431Z,0
2016-02-19T00:43:50.403Z,0
2016-02-19T00:44:50.359Z,0
2016-02-19T00:45:50.330Z,0
2016-02-19T00:46:50.286Z,0
2016-02-19T00:47:50.273Z,0
2016-02-19T00:48:50.245Z,0
2016-02-19T00:49:50.200Z,0
2016-02-19T00:50:50.172Z,0
2016-02-19T00:51:50.144Z,0
2016-02-19T00:52:50.115Z,0
2016-02-19T00:53:50.086Z,0
2016-02-19T00:54:50.058Z,0
2016-02-19T00:55:50.045Z,0
2016-02-19T00:56:50.001Z,0
2016-02-19T00:57:49.957Z,0
2016-02-19T00:58:49.943Z,0
2016-02-19T00:59:49.915Z,0
2016-02-19T01:00:49.871Z,0
2016-02-19T01:01:49.842Z,0
2016-02-19T01:02:49.814Z,0
2016-02-19T01:03:49.801Z,0
2016-02-19T01:04:49.756Z,0
2016-02-19T01:05:49.721Z,0
2016-02-19T01:06:49.693Z,0
2016-02-19T01:07:49.663Z,0
2016-02-19T01:08:49.651Z,0
2016-02-19T01:09:49.638Z,0
2016-02-19T01:10:49.578Z,0
2016-02-19T01:11:49.549Z,0
2016-02-19T01:12:49.521Z,0
2016-02-19T01:13:49.509Z,0
2016-02-19T01:14:49.464Z,0
2016-02-19T01:15:49.420Z,0
2016-02-19T01:16:49.392Z,0
2016-02-19T01:17:49.362Z,0
2016-02-19T01:18:49.334Z,0
2016-02-19T01:19:49.305Z,0
2016-02-19T01:20:49.277Z,0
2016-02-19T01:21:49.281Z,0
2016-02-19T01:22:49.220Z,0
2016-02-19T01:23:49.191Z,0
2016-02-19T01:24:49.179Z,0
2016-02-19T01:25:49.119Z,0
2016-02-19T01:26:49.122Z,0
2016-02-19T01:27:49.077Z,0
2016-02-19T01:28:49.049Z,0
2016-02-19T01:29:49.020Z,0
2016-02-19T01:30:48.992Z,0
2016-02-19T01:31:48.948Z,0
2016-02-19T01:32:48.950Z,0
2016-02-19T01:33:48.890Z,0
2016-02-19T01:34:48.877Z,0
2016-02-19T01:35:48.833Z,0
2016-02-19T01:36:48.804Z,0
2016-02-19T01:37:48.776Z,0
2016-02-19T01:38:48.747Z,0
2016-02-19T01:39:48.718Z,0
2016-02-19T01:40:48.691Z,0
2016-02-19T01:41:48.677Z,0
2016-02-19T01:42:48.632Z,0
2016-02-19T01:43:48.590Z,0
2016-02-19T01:44:48.576Z,0
2016-02-19T01:45:48.548Z,0
2016-02-19T01:46:48.504Z,0
2016-02-19T01:47:48.475Z,0
2016-02-19T01:48:48.462Z,0
2016-02-19T01:49:48.418Z,0
2016-02-19T01:50:48.404Z,0
2016-02-19T01:51:48.361Z,0
2016-02-19T01:52:48.348Z,0
2016-02-19T01:53:48.304Z,0
2016-02-19T01:54:48.259Z,0
2016-02-19T01:55:48.231Z,0
2016-02-19T01:56:48.217Z,0
2016-02-19T01:57:48.189Z,0
2016-02-19T01:58:48.144Z,0
2016-02-19T01:59:48.147Z,0
2016-02-19T02:00:48.088Z,0
2016-02-19T02:01:48.090Z,0
2016-02-19T02:02:48.030Z,0
2016-02-19T02:03:48.002Z,0
2016-02-19T02:04:47.974Z,0
2016-02-19T02:05:47.960Z,0
2016-02-19T02:06:47.916Z,0
2016-02-19T02:07:47.872Z,0
2016-02-19T02:08:47.875Z,0
2016-02-19T02:09:47.815Z,0
2016-02-19T02:10:47.802Z,0
2016-02-19T02:11:47.632Z,0
2016-02-19T02:12:47.730Z,0
2016-02-19T02:13:47.716Z,0
2016-02-19T02:14:47.687Z,0
2016-02-19T02:15:47.644Z,0
2016-02-19T02:16:47.615Z,0
2016-02-19T02:17:47.587Z,0
2016-02-19T02:18:47.559Z,0
2016-02-19T02:19:47.529Z,0
2016-02-19T02:20:47.501Z,0
2016-02-19T02:21:47.473Z,0
2016-02-19T02:22:47.445Z,0
2016-02-19T02:23:47.400Z,0
2016-02-19T02:24:47.386Z,0
2016-02-19T02:25:47.342Z,0
2016-02-19T02:26:47.330Z,0
2016-02-19T02:27:47.286Z,0
2016-02-19T02:28:47.257Z,0
2016-02-19T02:29:47.259Z,0
2016-02-19T02:30:47.199Z,0
2016-02-19T02:31:47.172Z,0
2016-02-19T02:32:47.127Z,0
2016-02-19T02:33:47.098Z,0
2016-02-19T02:34:47.102Z,0
2016-02-19T02:35:47.057Z,0
2016-02-19T02:36:47.028Z,0
2016-02-19T02:37:46.999Z,0
2016-02-19T02:38:46.955Z,0
2016-02-19T02:39:46.927Z,0
2016-02-19T02:40:46.898Z,0
2016-02-19T02:41:46.886Z,0
2016-02-19T02:42:46.841Z,0
2016-02-19T02:43:46.854Z,0
2016-02-19T02:44:46.491Z,0
2016-02-19T02:45:46.773Z,0
2016-02-19T02:46:46.800Z,0
2016-02-19T02:47:46.692Z,0
2016-02-19T02:48:46.711Z,0
2016-02-19T02:49:46.667Z,0
2016-02-19T02:50:46.592Z,0
2016-02-19T02:51:46.578Z,0
2016-02-19T02:52:46.534Z,0
2016-02-19T02:53:46.506Z,0
2016-02-19T02:54:46.525Z,0
2016-02-19T02:55:46.504Z,0
2016-02-19T02:56:46.429Z,0
2016-02-19T02:57:46.384Z,0
2016-02-19T02:58:46.387Z,0
2016-02-19T02:59:46.327Z,0
2016-02-19T03:00:46.315Z,0
2016-02-19T03:01:46.255Z,0
2016-02-19T03:02:46.226Z,0
2016-02-19T03:03:46.213Z,0
2016-02-19T03:04:46.169Z,0
2016-02-19T03:05:46.156Z,0
2016-02-19T03:06:46.112Z,0
2016-02-19T03:07:46.084Z,0
2016-02-19T03:08:45.899Z,0
2016-02-19T03:09:46.026Z,0
2016-02-19T03:10:45.982Z,0
2016-02-19T03:11:45.969Z,0
2016-02-19T03:12:45.940Z,0
2016-02-19T03:13:45.896Z,0
2016-02-19T03:14:45.868Z,0
2016-02-19T03:15:45.839Z,0
2016-02-19T03:16:45.811Z,0
2016-02-19T03:17:45.782Z,0
2016-02-19T03:18:45.754Z,0
2016-02-19T03:19:45.740Z,0
2016-02-19T03:20:45.696Z,0
2016-02-19T03:21:45.668Z,0
2016-02-19T03:22:45.639Z,0
2016-02-19T03:23:45.595Z,0
2016-02-19T03:24:45.582Z,0
2016-02-19T03:25:45.537Z,0
2016-02-19T03:26:45.526Z,0
2016-02-19T03:27:45.481Z,0
2016-02-19T03:28:45.467Z,0
2016-02-19T03:29:45.267Z,0
2016-02-19T03:30:45.395Z,0
2016-02-19T03:31:45.351Z,0
2016-02-19T03:32:45.338Z,0
2016-02-19T03:33:45.294Z,0
2016-02-19T03:34:45.297Z,0
2016-02-19T03:35:45.236Z,0
2016-02-19T03:36:45.287Z,0
2016-02-19T03:37:45.180Z,0
2016-02-19T03:38:45.183Z,0
2016-02-19T03:39:45.122Z,0
2016-02-19T03:40:45.094Z,0
2016-02-19T03:41:45.065Z,0
2016-02-19T03:42:45.037Z,0
2016-02-19T03:43:44.993Z,0
2016-02-19T03:44:45.010Z,0
2016-02-19T03:45:44.936Z,0
2016-02-19T03:46:44.923Z,0
2016-02-19T03:47:44.879Z,0
2016-02-19T03:48:44.849Z,0
2016-02-19T03:49:44.837Z,0
2016-02-19T03:50:44.793Z,0
2016-02-19T03:51:44.764Z,0
2016-02-19T03:52:44.767Z,0
2016-02-19T03:53:44.707Z,0
2016-02-19T03:54:44.678Z,0
2016-02-19T03:55:44.651Z,0
2016-02-19T03:56:44.606Z,0
2016-02-19T03:57:44.578Z,0
2016-02-19T03:58:44.580Z,0
2016-02-19T03:59:44.536Z,0
2016-02-19T04:00:44.507Z,0
2016-02-19T04:01:44.478Z,0
2016-02-19T04:02:44.434Z,0
2016-02-19T04:03:44.406Z,0
2016-02-19T04:04:44.392Z,0
2016-02-19T04:05:44.333Z,0
2016-02-19T04:06:44.336Z,0
2016-02-19T04:07:44.275Z,0
2016-02-19T04:08:44.278Z,0
2016-02-19T04:09:44.235Z,0
2016-02-19T04:10:44.205Z,0
2016-02-19T04:11:44.177Z,0
2016-02-19T04:12:44.164Z,0
2016-02-19T04:13:44.105Z,0
2016-02-19T04:14:44.091Z,0
2016-02-19T04:15:44.068Z,0
2016-02-19T04:16:44.008Z,0
2016-02-19T04:17:43.995Z,0
2016-02-19T04:18:43.951Z,0
2016-02-19T04:19:43.954Z,0
2016-02-19T04:20:43.893Z,0
2016-02-19T04:21:43.865Z,0
2016-02-19T04:22:43.837Z,0
2016-02-19T04:23:43.793Z,0
2016-02-19T04:24:43.779Z,0
2016-02-19T04:25:43.736Z,0
2016-02-19T04:26:43.706Z,0
2016-02-19T04:27:43.709Z,0
2016-02-19T04:28:43.633Z,0
2016-02-19T04:29:43.622Z,0
2016-02-19T04:30:43.592Z,0
2016-02-19T04:31:43.580Z,0
2016-02-19T04:32:43.536Z,0
2016-02-19T04:33:43.507Z,0
2016-02-19T04:34:43.494Z,0
2016-02-19T04:35:43.434Z,0
2016-02-19T04:36:43.421Z,0
2016-02-19T04:37:43.408Z,0
2016-02-19T04:38:43.348Z,0
2016-02-19T04:39:43.352Z,0
2016-02-19T04:40:43.291Z,0
2016-02-19T04:41:43.294Z,0
2016-02-19T04:42:43.235Z,0
2016-02-19T04:43:43.205Z,0
2016-02-19T04:44:43.177Z,0
2016-02-19T04:45:43.133Z,0
2016-02-19T04:46:43.135Z,0
2016-02-19T04:47:43.076Z,0
2016-02-19T04:48:43.078Z,0
2016-02-19T04:49:43.018Z,0
2016-02-19T04:50:43.037Z,0
2016-02-19T04:51:42.962Z,0
2016-02-19T04:52:42.949Z,0
2016-02-19T04:53:42.920Z,0
2016-02-19T04:54:42.875Z,0
2016-02-19T04:55:42.863Z,0
2016-02-19T04:56:42.834Z,0
2016-02-19T04:57:42.790Z,0
2016-02-19T04:58:42.745Z,0
2016-02-19T04:59:42.733Z,0
2016-02-19T05:00:42.720Z,0
2016-02-19T05:01:42.501Z,0
2016-02-19T05:02:42.660Z,0
2016-02-19T05:03:42.601Z,0
2016-02-19T05:04:42.572Z,0
2016-02-19T05:05:42.558Z,0
2016-02-19T05:06:42.515Z,0
2016-02-19T05:07:42.502Z,0
2016-02-19T05:08:42.442Z,0
2016-02-19T05:09:42.444Z,0
2016-02-19T05:10:42.385Z,0
2016-02-19T05:11:42.357Z,0
2016-02-19T05:12:42.327Z,0
2016-02-19T05:13:42.300Z,0
2016-02-19T05:14:42.271Z,0
2016-02-19T05:15:42.257Z,0
2016-02-19T05:16:42.214Z,0
2016-02-19T05:17:42.044Z,0
2016-02-19T05:18:42.157Z,0
2016-02-19T05:19:41.971Z,0
2016-02-19T05:20:42.115Z,0
2016-02-19T05:21:42.040Z,0
2016-02-19T05:22:42.012Z,0
2016-02-19T05:23:41.968Z,0
2016-02-19T05:24:41.923Z,0
2016-02-19T05:25:41.894Z,0
2016-02-19T05:26:41.828Z,0
2016-02-19T05:27:41.810Z,0
2016-02-19T05:28:41.759Z,0
2016-02-19T05:29:41.725Z,0
2016-02-19T05:30:41.676Z,0
2016-02-19T05:31:41.660Z,0
2016-02-19T05:32:41.614Z,0
2016-02-19T05:33:41.599Z,0
2016-02-19T05:34:41.554Z,0
2016-02-19T05:35:41.507Z,0
2016-02-19T05:36:41.509Z,0
2016-02-19T05:37:41.479Z,0
2016-02-19T05:38:41.419Z,0
2016-02-19T05:39:41.421Z,0
2016-02-19T05:40:41.359Z,0
2016-02-19T05:41:41.348Z,0
2016-02-19T05:42:41.303Z,0
2016-02-19T05:43:41.290Z,0
2016-02-19T05:44:41.262Z,0
2016-02-19T05:45:41.233Z,0
2016-02-19T05:46:41.189Z,0
2016-02-19T05:47:41.176Z,0
2016-02-19T05:48:41.131Z,0
2016-02-19T05:49:41.103Z,0
2016-02-19T05:50:41.074Z,0
2016-02-19T05:51:41.047Z,0
2016-02-19T05:52:40.861Z,0
2016-02-19T05:53:40.989Z,0
2016-02-19T05:54:40.945Z,0
2016-02-19T05:55:40.916Z,0
2016-02-19T05:56:40.903Z,0
2016-02-19T05:57:40.874Z,0
2016-02-19T05:58:40.816Z,0
2016-02-19T05:59:40.802Z,0
2016-02-19T06:00:40.773Z,0
2016-02-19T06:01:40.745Z,0
2016-02-19T06:02:40.732Z,0
2016-02-19T06:03:40.672Z,0
2016-02-19T06:04:40.691Z,0
2016-02-19T06:05:40.521Z,0
2016-02-19T06:06:40.578Z,0
2016-02-19T06:07:40.581Z,0
2016-02-19T06:08:40.520Z,0
2016-02-19T06:09:40.523Z,0
2016-02-19T06:10:40.463Z,0
2016-02-19T06:11:40.451Z,0
2016-02-19T06:12:40.406Z,0
2016-02-19T06:13:40.394Z,0
2016-02-19T06:14:40.193Z,0
2016-02-19T06:15:40.321Z,0
2016-02-19T06:16:40.292Z,0
2016-02-19T06:17:40.247Z,0
2016-02-19T06:18:40.236Z,0
2016-02-19T06:19:40.191Z,0
2016-02-19T06:20:40.162Z,0
2016-02-19T06:21:40.133Z,0
2016-02-19T06:22:40.121Z,0
2016-02-19T06:23:40.076Z,0
2016-02-19T06:24:40.048Z,0
2016-02-19T06:25:40.035Z,0
2016-02-19T06:26:40.007Z,0
2016-02-19T06:27:39.962Z,0
2016-02-19T06:28:39.934Z,0
2016-02-19T06:29:39.905Z,0
2016-02-19T06:30:39.861Z,0
2016-02-19T06:31:39.864Z,0
2016-02-19T06:32:39.804Z,0
2016-02-19T06:33:39.775Z,5
2016-02-19T06:34:39.793Z,5
2016-02-19T06:35:39.717Z,5
2016-02-19T06:36:39.721Z,5
2016-02-19T06:37:39.661Z,5
2016-02-19T06:38:39.648Z,5
2016-02-19T06:39:52.357Z,5
2016-02-19T06:40:39.576Z,5
2016-02-19T06:41:39.547Z,10
2016-02-19T06:42:39.519Z,10
2016-02-19T06:45:54.935Z,10
2016-02-19T06:46:06.310Z,10
2016-02-19T06:47:06.283Z,10
2016-02-19T06:48:06.222Z,10
2016-02-19T06:49:06.209Z,15
2016-02-19T06:50:06.180Z,15
2016-02-19T06:51:06.152Z,15
2016-02-19T06:52:06.139Z,15
2016-02-19T06:53:06.079Z,20
2016-02-19T06:54:06.067Z,20
2016-02-19T06:55:06.038Z,20
2016-02-19T06:56:06.010Z,20
2016-02-19T06:57:05.980Z,25
2016-02-19T06:58:05.937Z,25
2016-02-19T06:59:05.893Z,25
2016-02-19T07:00:05.926Z,25
2016-02-19T07:01:05.835Z,30
2016-02-19T07:02:05.823Z,30
2016-02-19T07:03:05.809Z,35
2016-02-19T07:04:05.749Z,35
2016-02-19T07:05:05.742Z,40
2016-02-19T07:06:05.698Z,40
2016-02-19T07:07:05.684Z,45
2016-02-19T07:08:05.672Z,45
2016-02-19T07:09:05.612Z,50
2016-02-19T07:10:05.583Z,55
2016-02-19T07:11:05.570Z,55
2016-02-19T07:12:05.511Z,60
2016-02-19T07:13:05.497Z,60
2016-02-19T07:14:05.469Z,60
2016-02-19T07:15:05.424Z,65
2016-02-19T07:16:05.412Z,65
2016-02-19T07:17:05.367Z,65
2016-02-19T07:18:05.369Z,70
2016-02-19T07:19:05.326Z,70
2016-02-19T07:20:05.297Z,75
2016-02-19T07:21:05.269Z,75
2016-02-19T07:22:05.225Z,80
2016-02-19T07:23:05.197Z,80
2016-02-19T07:24:05.168Z,80
2016-02-19T07:25:05.138Z,85
2016-02-19T07:26:05.127Z,85
2016-02-19T07:27:05.082Z,90
2016-02-19T07:28:05.069Z,90
2016-02-19T07:29:05.040Z,95
2016-02-19T07:30:04.840Z,100
2016-02-19T07:31:04.249Z,105
2016-02-19T07:32:04.939Z,105
2016-02-19T07:33:04.927Z,110
2016-02-19T07:34:04.882Z,115
2016-02-19T07:35:04.853Z,120
2016-02-19T07:36:04.840Z,120
2016-02-19T07:37:04.781Z,125
2016-02-19T07:38:04.815Z,130
2016-02-19T07:39:04.739Z,135
2016-02-19T07:40:04.711Z,140
2016-02-19T07:41:04.714Z,145
2016-02-19T07:42:04.638Z,150
2016-02-19T07:43:04.641Z,150
2016-02-19T07:44:04.597Z,155
2016-02-19T07:45:04.552Z,155
2016-02-19T07:46:04.524Z,155
2016-02-19T07:47:04.495Z,160
2016-02-19T07:48:04.514Z,165
2016-02-19T07:49:04.438Z,165
2016-02-19T07:50:04.409Z,170
2016-02-19T07:51:04.381Z,170
2016-02-19T07:52:04.352Z,170
2016-02-19T07:53:04.339Z,175
2016-02-19T07:54:04.296Z,175
2016-02-19T07:55:04.282Z,180
2016-02-19T07:56:04.347Z,185
2016-02-19T07:57:04.241Z,190
2016-02-19T07:58:04.213Z,195
2016-02-19T07:59:04.152Z,205
2016-02-19T08:00:04.124Z,215
2016-02-19T08:01:04.079Z,220
2016-02-19T08:02:04.067Z,230
2016-02-19T08:03:04.038Z,235
2016-02-19T08:04:04.009Z,245
2016-02-19T08:05:03.987Z,255
2016-02-19T08:06:03.957Z,260
2016-02-19T08:07:04.289Z,265
2016-02-19T08:08:03.900Z,270
2016-02-19T08:09:03.856Z,275
2016-02-19T08:10:03.874Z,280
2016-02-19T08:11:03.814Z,280
2016-02-19T08:12:03.786Z,285
2016-02-19T08:13:03.773Z,285
2016-02-19T08:14:03.713Z,290
2016-02-19T08:15:04.435Z,290
2016-02-19T08:16:03.672Z,300
2016-02-19T08:17:03.566Z,295
2016-02-19T08:18:03.614Z,295
2016-02-19T08:19:03.585Z,295
2016-02-19T08:20:03.574Z,300
2016-02-19T08:21:03.513Z,300
2016-02-19T08:22:03.500Z,305
2016-02-19T08:23:03.472Z,305
2016-02-19T08:24:03.443Z,305
2016-02-19T08:25:03.430Z,310
2016-02-19T08:26:03.386Z,315
2016-02-19T08:27:03.373Z,320
2016-02-19T08:28:03.329Z,320
2016-02-19T08:29:03.300Z,325
2016-02-19T08:30:03.272Z,325
2016-02-19T08:31:03.243Z,330
2016-02-19T08:32:03.231Z,340
2016-02-19T08:33:03.077Z,350
2016-02-19T08:34:03.001Z,360
2016-02-19T08:35:03.145Z,370
2016-02-19T08:36:03.538Z,375
2016-02-19T08:37:03.088Z,385
2016-02-19T08:38:03.090Z,395
2016-02-19T08:39:03.014Z,400
2016-02-19T08:40:03.017Z,410
2016-02-19T08:41:02.973Z,415
2016-02-19T08:42:02.960Z,415
2016-02-19T08:43:02.901Z,420
2016-02-19T08:44:02.903Z,420
2016-02-19T08:45:02.891Z,430
2016-02-19T08:46:02.830Z,430
2016-02-19T08:47:02.817Z,440
2016-02-19T08:48:02.789Z,445
2016-02-19T08:49:02.745Z,445
2016-02-19T08:50:02.732Z,450
2016-02-19T08:51:02.688Z,455
2016-02-19T08:52:02.518Z,465
2016-02-19T08:53:02.663Z,460
2016-02-19T08:54:02.618Z,460
2016-02-19T08:55:02.605Z,465
2016-02-19T08:56:02.560Z,465
2016-02-19T08:57:02.532Z,470
2016-02-19T08:58:02.519Z,475
2016-02-19T08:59:02.474Z,485
2016-02-19T09:00:02.446Z,495
2016-02-19T09:01:02.418Z,505
2016-02-19T09:02:02.404Z,515
2016-02-19T09:03:02.376Z,530
2016-02-19T09:04:02.348Z,530
2016-02-19T09:05:02.320Z,530
2016-02-19T09:06:02.306Z,535
2016-02-19T09:07:02.262Z,540
2016-02-19T09:08:02.249Z,545
2016-02-19T09:09:02.220Z,545
2016-02-19T09:10:02.176Z,540
2016-02-19T09:11:02.179Z,545
2016-02-19T09:12:02.135Z,545
2016-02-19T09:13:02.106Z,545
2016-02-19T09:14:02.078Z,545
2016-02-19T09:15:02.049Z,545
2016-02-19T09:16:02.036Z,545
2016-02-19T09:17:01.991Z,545
2016-02-19T09:18:01.980Z,550
2016-02-19T09:19:01.950Z,550
2016-02-19T09:20:01.921Z,550
2016-02-19T09:21:01.893Z,550
2016-02-19T09:22:01.865Z,560
2016-02-19T09:23:01.852Z,560
2016-02-19T09:24:02.417Z,555
2016-02-19T09:25:01.779Z,555
2016-02-19T09:26:01.766Z,570
2016-02-19T09:27:01.737Z,565
2016-02-19T09:28:01.741Z,570
2016-02-19T09:29:01.696Z,575
2016-02-19T09:30:01.651Z,580
2016-02-19T09:31:01.623Z,585
2016-02-19T09:32:01.595Z,590
2016-02-19T09:33:01.582Z,595
2016-02-19T09:34:01.569Z,600
2016-02-19T09:35:01.540Z,605
2016-02-19T09:36:01.512Z,610
2016-02-19T09:37:01.530Z,610
2016-02-19T09:38:01.455Z,620
2016-02-19T09:39:01.426Z,625
2016-02-19T09:40:01.241Z,630
2016-02-19T09:41:01.384Z,635
2016-02-19T09:42:01.356Z,635
2016-02-19T09:43:01.342Z,635
2016-02-19T09:44:01.300Z,630
2016-02-19T09:45:01.270Z,630
2016-02-19T09:46:01.257Z,630
2016-02-19T09:47:01.244Z,630
2016-02-19T09:48:01.200Z,630
2016-02-19T09:49:01.172Z,635
2016-02-19T09:50:01.143Z,635
2016-02-19T09:51:01.146Z,635
2016-02-19T09:52:01.086Z,635
2016-02-19T09:53:01.073Z,630
2016-02-19T09:54:01.045Z,635
2016-02-19T09:55:01.016Z,635
2016-02-19T09:56:01.002Z,640
2016-02-19T09:57:01.224Z,645
2016-02-19T09:58:00.946Z,645
2016-02-19T09:59:00.918Z,645
2016-02-19T10:00:01.357Z,645
2016-02-19T10:01:00.876Z,655
2016-02-19T10:02:00.879Z,655
2016-02-19T10:03:00.818Z,650
2016-02-19T10:04:00.790Z,650
2016-02-19T10:05:00.777Z,650
2016-02-19T10:06:00.748Z,650
2016-02-19T10:07:00.721Z,645
2016-02-19T10:08:00.707Z,650
2016-02-19T10:09:00.663Z,650
2016-02-19T10:10:00.650Z,655
2016-02-19T10:11:00.637Z,665
2016-02-19T10:12:00.592Z,660
2016-02-19T10:13:00.565Z,655
2016-02-19T10:14:00.551Z,660
2016-02-19T10:15:00.523Z,665
2016-02-19T10:16:00.494Z,670
2016-02-19T10:17:00.481Z,680
2016-02-19T10:18:00.453Z,690
2016-02-19T10:19:00.424Z,700
2016-02-19T10:20:00.396Z,705
2016-02-19T10:21:00.383Z,705
2016-02-19T10:22:00.338Z,705
2016-02-19T10:23:00.170Z,705
2016-02-19T10:24:00.328Z,705
2016-02-19T10:25:00.487Z,710
2016-02-19T10:26:00.241Z,715
2016-02-19T10:27:00.227Z,715
2016-02-19T10:28:00.199Z,715
2016-02-19T10:29:00.170Z,715
2016-02-19T10:30:00.157Z,735
2016-02-19T10:31:00.129Z,720
2016-02-19T10:32:00.100Z,720
2016-02-19T10:33:00.072Z,725
2016-02-19T10:34:00.059Z,725
2016-02-19T10:35:00.029Z,725
2016-02-19T10:36:00.017Z,725
2016-02-19T10:36:59.988Z,730
2016-02-19T10:37:59.959Z,725
2016-02-19T10:38:59.931Z,730
2016-02-19T10:40:00.012Z,720
2016-02-19T10:40:59.889Z,715
2016-02-19T10:41:59.846Z,720
2016-02-19T10:42:59.833Z,715
2016-02-19T10:43:59.819Z,715
2016-02-19T10:44:59.792Z,715
2016-02-19T10:45:59.778Z,720
2016-02-19T10:46:59.734Z,725
2016-02-19T10:47:59.705Z,725
2016-02-19T10:48:59.677Z,730
2016-02-19T10:49:59.664Z,735
2016-02-19T10:50:59.636Z,740
2016-02-19T10:51:59.623Z,755
2016-02-19T10:52:59.594Z,750
2016-02-19T10:53:59.566Z,750
2016-02-19T10:54:59.537Z,755
2016-02-19T10:55:59.508Z,760
2016-02-19T10:56:59.479Z,765
2016-02-19T10:57:59.451Z,760
2016-02-19T10:58:59.438Z,755
2016-02-19T10:59:59.425Z,760
2016-02-19T11:00:59.382Z,760
2016-02-19T11:01:59.368Z,750
2016-02-19T11:02:59.354Z,755
2016-02-19T11:03:59.311Z,765
2016-02-19T11:04:59.282Z,760
2016-02-19T11:05:59.284Z,770
2016-02-19T11:06:59.241Z,780
2016-02-19T11:07:59.228Z,775
2016-02-19T11:08:59.199Z,775
2016-02-19T11:09:59.187Z,775
2016-02-19T11:10:59.142Z,760
2016-02-19T11:11:59.129Z,745
2016-02-19T11:12:59.101Z,730
2016-02-19T11:13:59.087Z,745
2016-02-19T11:14:59.059Z,765
2016-02-19T11:15:59.031Z,770
2016-02-19T11:16:59.003Z,775
2016-02-19T11:17:58.989Z,785
2016-02-19T11:18:59.008Z,785
2016-02-19T11:19:58.933Z,770
2016-02-19T11:20:58.935Z,750
2016-02-19T11:21:58.891Z,735
2016-02-19T11:22:58.861Z,705
2016-02-19T11:23:58.849Z,655
2016-02-19T11:24:58.821Z,660
2016-02-19T11:25:58.792Z,685
2016-02-19T11:26:58.810Z,705
2016-02-19T11:27:58.750Z,715
2016-02-19T11:28:58.722Z,720
2016-02-19T11:29:58.693Z,730
2016-02-19T11:30:58.680Z,715
2016-02-19T11:31:58.652Z,685
2016-02-19T11:32:58.623Z,655
2016-02-19T11:33:58.610Z,645
2016-02-19T11:34:58.582Z,630
2016-02-19T11:35:58.553Z,595
2016-02-19T11:36:58.525Z,560
2016-02-19T11:37:58.512Z,510
2016-02-19T11:38:58.483Z,495
2016-02-19T11:39:58.455Z,490
2016-02-19T11:40:58.442Z,505
2016-02-19T11:41:58.412Z,525
2016-02-19T11:42:58.384Z,530
2016-02-19T11:43:58.372Z,520
2016-02-19T11:44:58.356Z,470
2016-02-19T11:45:58.311Z,435
2016-02-19T11:46:58.299Z,425
2016-02-19T11:47:58.270Z,445
2016-02-19T11:48:58.241Z,510
2016-02-19T11:49:58.214Z,580
2016-02-19T11:50:58.200Z,595
2016-02-19T11:51:58.155Z,600
2016-02-19T11:52:58.143Z,630
2016-02-19T11:53:58.130Z,640
2016-02-19T11:54:58.102Z,600
2016-02-19T11:55:58.073Z,540
2016-02-19T11:56:57.904Z,520
2016-02-19T11:57:58.032Z,520
2016-02-19T11:58:58.003Z,515
2016-02-19T11:59:57.990Z,520
2016-02-19T12:00:57.946Z,490
2016-02-19T12:01:57.933Z,490
2016-02-19T12:02:57.888Z,520
2016-02-19T12:03:57.877Z,540
2016-02-19T12:04:57.847Z,540
2016-02-19T12:05:57.850Z,535
2016-02-19T12:06:57.807Z,510
2016-02-19T12:07:57.793Z,480
2016-02-19T12:08:57.749Z,490
2016-02-19T12:09:57.720Z,515
2016-02-19T12:10:57.707Z,475
2016-02-19T12:11:57.694Z,455
2016-02-19T12:12:57.666Z,470
2016-02-19T12:13:57.621Z,465
2016-02-19T12:14:57.592Z,445
2016-02-19T12:15:57.581Z,440
2016-02-19T12:16:57.551Z,455
2016-02-19T12:17:57.538Z,510
2016-02-19T12:18:57.510Z,565
2016-02-19T12:19:57.481Z,615
2016-02-19T12:20:57.453Z,630
2016-02-19T12:21:57.425Z,600
2016-02-19T12:22:57.411Z,575
2016-02-19T12:23:57.367Z,560
2016-02-19T12:24:57.354Z,590
2016-02-19T12:25:57.325Z,625
2016-02-19T12:26:57.171Z,660
2016-02-19T12:27:57.283Z,680
2016-02-19T12:28:57.271Z,685
2016-02-19T12:29:57.243Z,675
2016-02-19T12:30:57.199Z,670
2016-02-19T12:31:57.185Z,650
2016-02-19T12:32:57.157Z,635
2016-02-19T12:33:57.129Z,595
2016-02-19T12:34:57.115Z,520
2016-02-19T12:35:57.071Z,465
2016-02-19T12:36:57.043Z,475
2016-02-19T12:37:57.030Z,480
2016-02-19T12:38:57.017Z,450
2016-02-19T12:39:56.973Z,430
2016-02-19T12:40:56.976Z,435
2016-02-19T12:41:56.946Z,455
2016-02-19T12:42:56.917Z,475
2016-02-19T12:43:56.874Z,460
2016-02-19T12:44:56.845Z,495
2016-02-19T12:45:56.832Z,510
2016-02-19T12:46:56.804Z,510
2016-02-19T12:47:56.775Z,525
2016-02-19T12:48:56.762Z,515
2016-02-19T12:49:56.734Z,490
2016-02-19T12:50:56.705Z,440
2016-02-19T12:51:56.677Z,425
2016-02-19T12:52:56.664Z,450
2016-02-19T12:53:56.635Z,490
2016-02-19T12:54:56.607Z,515
2016-02-19T12:55:56.594Z,500
2016-02-19T12:56:56.580Z,470
2016-02-19T12:57:56.536Z,455
2016-02-19T12:58:56.508Z,450
2016-02-19T12:59:56.479Z,440
2016-02-19T13:00:56.467Z,435
2016-02-19T13:01:56.438Z,395
2016-02-19T13:02:56.394Z,360
2016-02-19T13:03:56.396Z,350
2016-02-19T13:04:56.352Z,380
2016-02-19T13:05:56.324Z,375
2016-02-19T13:06:56.326Z,375
2016-02-19T13:07:56.282Z,350
2016-02-19T13:08:56.238Z,350
2016-02-19T13:09:56.240Z,375
2016-02-19T13:10:56.197Z,380
2016-02-19T13:11:56.184Z,390
2016-02-19T13:12:56.154Z,360
2016-02-19T13:13:56.112Z,370
2016-02-19T13:14:56.082Z,405
2016-02-19T13:15:56.069Z,385
2016-02-19T13:16:56.041Z,345
2016-02-19T13:17:56.043Z,345
2016-02-19T13:18:55.984Z,350
2016-02-19T13:19:55.955Z,385
2016-02-19T13:20:55.942Z,435
2016-02-19T13:21:55.898Z,455
2016-02-19T13:22:55.885Z,435
2016-02-19T13:23:55.856Z,415
2016-02-19T13:24:55.828Z,410
2016-02-19T13:25:55.814Z,395
2016-02-19T13:26:55.771Z,375
2016-02-19T13:27:55.758Z,385
2016-02-19T13:28:55.729Z,370
2016-02-19T13:29:55.700Z,360
2016-02-19T13:30:55.688Z,345
2016-02-19T13:31:55.752Z,345
2016-02-19T13:32:55.616Z,355
2016-02-19T13:33:55.602Z,360
2016-02-19T13:34:55.574Z,320
2016-02-19T13:35:55.545Z,275
2016-02-19T13:36:55.516Z,265
2016-02-19T13:37:55.582Z,305
2016-02-19T13:38:55.459Z,315
2016-02-19T13:39:55.462Z,330
2016-02-19T13:40:55.417Z,345
2016-02-19T13:41:55.390Z,345
2016-02-19T13:42:55.377Z,335
2016-02-19T13:43:55.332Z,330
2016-02-19T13:44:55.303Z,315
2016-02-19T13:45:55.291Z,295
2016-02-19T13:46:55.246Z,275
2016-02-19T13:47:55.248Z,270
2016-02-19T13:48:55.190Z,300
2016-02-19T13:49:55.176Z,340
2016-02-19T13:50:55.148Z,350
2016-02-19T13:51:55.120Z,335
2016-02-19T13:52:55.106Z,345
2016-02-19T13:53:55.062Z,355
2016-02-19T13:54:55.033Z,340
2016-02-19T13:55:55.036Z,315
2016-02-19T13:56:54.977Z,310
2016-02-19T13:57:54.994Z,330
2016-02-19T13:58:54.936Z,345
2016-02-19T13:59:54.906Z,370
2016-02-19T14:00:54.893Z,405
2016-02-19T14:01:54.850Z,420
2016-02-19T14:02:54.852Z,435
2016-02-19T14:03:54.807Z,440
2016-02-19T14:04:54.811Z,430
2016-02-19T14:05:54.751Z,445
2016-02-19T14:06:54.722Z,445
2016-02-19T14:07:54.694Z,425
2016-02-19T14:08:54.665Z,410
2016-02-19T14:09:54.637Z,395
2016-02-19T14:10:54.623Z,410
2016-02-19T14:11:54.595Z,425
2016-02-19T14:12:54.582Z,410
2016-02-19T14:13:54.616Z,385
2016-02-19T14:14:54.525Z,365
2016-02-19T14:15:54.496Z,365
2016-02-19T14:16:54.468Z,370